Time;durP1;ratioP1;P1;durP2;ratioP2;P2;SDS_P1;SDS_P2;PMS_P1;PMS_P2;Temp;Humidity;BMP_temperature;BMP_pressure;BME280_temperature;BME280_humidity;BME280_pressure;Samples;Min_cycle;Max_cycle;Signal;HPM_P1;HPM_P2
2022/12/27 00:01:28;;;;;;;32.10;18.20;;;;;;;2.50;100.00;101255.14;108131;1255;58217;-79
2022/12/27 00:03:57;;;;;;;29.30;18.00;;;;;;;2.52;100.00;101251.29;108160;1260;74266;-80
2022/12/27 00:06:27;;;;;;;31.40;18.90;;;;;;;2.55;100.00;101254.11;108420;1251;72438;-77
2022/12/27 00:08:57;;;;;;;26.80;16.70;;;;;;;2.54;100.00;101251.75;108072;1264;68829;-78
2022/12/27 00:11:30;;;;;;;27.80;17.00;;;;;;;2.54;100.00;101250.90;108235;1258;72807;-78
2022/12/27 00:14:04;;;;;;;30.30;17.10;;;;;;;2.51;100.00;101245.80;108239;1261;58211;-79
2022/12/27 00:16:33;;;;;;;26.20;16.90;;;;;;;2.51;100.00;101247.19;108121;1264;61516;-78
2022/12/27 00:19:03;;;;;;;27.60;17.40;;;;;;;2.48;100.00;101245.39;108217;1260;64235;-80
2022/12/27 00:21:32;;;;;;;29.50;18.00;;;;;;;2.50;100.00;101243.09;108353;1259;60906;-78
2022/12/27 00:24:02;;;;;;;26.60;17.00;;;;;;;2.46;100.00;101248.20;108326;1257;61187;-79
2022/12/27 00:26:34;;;;;;;27.40;17.40;;;;;;;2.33;100.00;101246.51;108398;1249;73780;-82
2022/12/27 00:29:03;;;;;;;26.40;16.40;;;;;;;2.26;100.00;101241.40;108200;1259;58236;-79
2022/12/27 00:31:32;;;;;;;29.40;16.60;;;;;;;2.34;100.00;101239.61;108342;1257;57680;-81
2022/12/27 00:34:04;;;;;;;27.70;16.40;;;;;;;2.37;100.00;101241.41;108198;1260;73546;-79
2022/12/27 00:36:34;;;;;;;27.40;18.30;;;;;;;2.45;100.00;101244.26;108143;1258;61326;-79
2022/12/27 00:39:04;;;;;;;28.80;17.00;;;;;;;2.51;100.00;101250.27;108350;1254;69801;-79
2022/12/27 00:41:32;;;;;;;29.70;17.50;;;;;;;2.48;100.00;101247.80;108224;1268;72783;-80
2022/12/27 00:44:01;;;;;;;28.80;16.50;;;;;;;2.56;100.00;101251.35;108329;1261;61154;-79
2022/12/27 00:46:33;;;;;;;29.30;17.10;;;;;;;2.60;100.00;101258.09;108348;1254;60690;-80
2022/12/27 00:49:02;;;;;;;27.60;16.90;;;;;;;2.56;100.00;101250.98;108248;1264;73041;-78
2022/12/27 00:51:31;;;;;;;29.70;17.80;;;;;;;2.55;100.00;101245.52;108350;1258;70486;-81
2022/12/27 00:54:00;;;;;;;26.70;17.20;;;;;;;2.53;100.00;101239.23;108254;1260;59862;-80
2022/12/27 00:56:30;;;;;;;25.30;16.10;;;;;;;2.57;100.00;101238.23;108201;1264;62966;-78
2022/12/27 00:59:02;;;;;;;29.40;17.10;;;;;;;2.49;100.00;101236.27;108168;1264;61538;-80
2022/12/27 01:01:34;;;;;;;28.50;17.50;;;;;;;2.51;100.00;101237.20;108256;1260;60995;-80
2022/12/27 01:04:04;;;;;;;27.80;16.40;;;;;;;2.44;100.00;101234.16;108138;1254;74197;-79
2022/12/27 01:06:34;;;;;;;25.50;16.30;;;;;;;2.47;100.00;101235.09;108371;1264;61518;-79
2022/12/27 01:09:05;;;;;;;29.80;16.80;;;;;;;2.40;100.00;101235.14;108166;1261;69550;-79
2022/12/27 01:11:34;;;;;;;26.80;17.30;;;;;;;2.40;100.00;101241.49;108274;1254;63506;-79
2022/12/27 01:14:04;;;;;;;28.60;18.10;;;;;;;2.39;100.00;101244.64;108335;1267;57686;-80
2022/12/27 01:16:33;;;;;;;29.80;17.20;;;;;;;2.46;100.00;101243.73;108192;1249;59411;-79
2022/12/27 01:19:02;;;;;;;30.30;17.70;;;;;;;2.43;100.00;101245.54;108322;1257;63424;-78
2022/12/27 01:21:31;;;;;;;30.20;18.30;;;;;;;2.41;100.00;101248.34;108380;1252;61932;-80
2022/12/27 01:24:00;;;;;;;29.40;17.20;;;;;;;2.45;100.00;101237.40;108265;1258;69240;-78
2022/12/27 01:26:29;;;;;;;28.90;17.40;;;;;;;2.56;100.00;101244.80;108323;1258;73710;-79
2022/12/27 01:28:57;;;;;;;28.10;17.00;;;;;;;2.54;100.00;101239.71;108313;1249;62318;-80
2022/12/27 01:31:27;;;;;;;26.40;16.30;;;;;;;2.60;100.00;101234.36;108316;1255;60857;-79
2022/12/27 01:33:58;;;;;;;28.20;16.30;;;;;;;2.61;100.00;101230.55;108052;1266;74162;-81
2022/12/27 01:36:30;;;;;;;29.00;17.00;;;;;;;2.64;100.00;101229.06;108179;1258;71953;-78
2022/12/27 01:38:59;;;;;;;27.00;18.00;;;;;;;2.67;100.00;101224.50;108237;1260;60662;-79
2022/12/27 01:44:38;;;;;;;26.50;16.50;;;;;;;2.60;100.00;101215.45;108201;1257;58235;-78
2022/12/27 01:47:31;;;;;;;25.50;15.70;;;;;;;2.63;100.00;101220.17;108314;1257;59438;-78
2022/12/27 01:50:27;;;;;;;27.60;16.50;;;;;;;2.63;100.00;101217.25;108327;1255;74695;-76
2022/12/27 01:53:31;;;;;;;24.00;15.70;;;;;;;2.53;100.00;101215.67;108408;1258;63288;-78
2022/12/27 01:56:05;;;;;;;26.40;16.60;;;;;;;2.57;100.00;101215.20;108305;1254;60283;-76
2022/12/27 01:59:01;;;;;;;28.70;17.10;;;;;;;2.58;100.00;101211.71;108212;1260;73722;-78
2022/12/27 02:01:37;;;;;;;28.50;17.70;;;;;;;2.61;100.00;101210.42;108089;1260;58136;-79
2022/12/27 02:04:11;;;;;;;27.20;16.30;;;;;;;2.67;100.00;101205.23;108241;1261;58257;-75
2022/12/27 02:06:40;;;;;;;25.10;15.90;;;;;;;2.64;100.00;101203.27;108060;1263;62936;-77
2022/12/27 02:09:27;;;;;;;27.10;16.30;;;;;;;2.67;100.00;101201.28;108110;1255;60615;-77
2022/12/27 02:11:58;;;;;;;26.20;16.20;;;;;;;2.69;100.00;101192.64;108121;1258;61686;-79
2022/12/27 02:14:36;;;;;;;24.80;15.40;;;;;;;2.68;100.00;101185.44;107958;1260;62736;-79
2022/12/27 02:17:13;;;;;;;29.10;15.60;;;;;;;2.71;100.00;101178.81;107931;1257;57773;-79
2022/12/27 02:19:41;;;;;;;26.70;16.40;;;;;;;2.70;100.00;101172.31;107967;1251;61255;-78
2022/12/27 02:24:01;;;;;;;26.70;16.10;;;;;;;2.66;100.00;101168.83;108099;1260;65044;-79
2022/12/27 02:26:07;;;;;;;28.50;17.70;;;;;;;2.66;100.00;101166.95;108253;1251;60788;-78
2022/12/27 02:28:55;;;;;;;25.90;15.30;;;;;;;2.64;100.00;101169.73;108149;1264;60015;-79
2022/12/27 02:31:34;;;;;;;26.20;16.50;;;;;;;2.59;100.00;101166.48;108230;1254;72001;-78
2022/12/27 02:34:12;;;;;;;28.10;16.40;;;;;;;2.62;100.00;101165.70;108109;1258;58366;-78
2022/12/27 02:36:44;;;;;;;24.90;16.20;;;;;;;2.66;100.00;101168.48;108152;1257;58264;-79
2022/12/27 02:39:15;;;;;;;26.40;16.50;;;;;;;2.76;100.00;101170.73;108279;1255;75064;-77
2022/12/27 02:53:21;;;;;;;27.20;16.70;;;;;;;2.69;100.00;101153.42;108215;1257;60213;-79
2022/12/27 02:57:08;;;;;;;29.80;16.20;;;;;;;2.67;100.00;101145.73;108244;1251;75131;-77
2022/12/27 03:03:30;;;;;;;26.90;16.20;;;;;;;2.64;100.00;101133.63;108132;1258;59950;-78
2022/12/27 03:06:51;;;;;;;26.00;15.80;;;;;;;2.64;100.00;101128.97;108205;1254;70997;-79
2022/12/27 03:16:36;;;;;;;24.70;15.00;;;;;;;2.71;100.00;101125.67;108708;1257;62998;-79
2022/12/27 03:25:27;;;;;;;24.80;16.40;;;;;;;2.68;100.00;101108.77;108139;1257;72983;-79
2022/12/27 03:34:31;;;;;;;28.90;16.70;;;;;;;2.73;100.00;101102.58;108248;1250;74908;-78
2022/12/27 03:40:29;;;;;;;26.20;15.70;;;;;;;2.81;100.00;101097.80;108249;1255;60292;-79
2022/12/27 03:43:14;;;;;;;25.40;16.20;;;;;;;2.81;100.00;101095.90;108284;1257;72999;-79
2022/12/27 03:49:32;;;;;;;24.80;16.60;;;;;;;2.89;100.00;101099.42;108258;1254;57621;-79
2022/12/27 03:52:07;;;;;;;27.80;16.00;;;;;;;2.89;100.00;101106.13;108275;1254;74340;-79
2022/12/27 03:54:39;;;;;;;27.10;16.60;;;;;;;2.89;100.00;101105.98;108452;1264;72585;-78
2022/12/27 03:57:18;;;;;;;28.30;16.10;;;;;;;2.95;100.00;101098.88;108287;1254;60528;-78
2022/12/27 03:59:47;;;;;;;24.60;15.30;;;;;;;3.01;100.00;101100.91;108137;1264;63219;-79
2022/12/27 04:02:17;;;;;;;26.40;16.30;;;;;;;3.01;100.00;101104.18;108187;1254;58538;-79
2022/12/27 04:04:47;;;;;;;26.90;15.60;;;;;;;3.06;100.00;101102.29;108213;1261;60224;-78
2022/12/27 04:07:16;;;;;;;28.70;16.80;;;;;;;3.12;100.00;101102.39;108218;1254;74312;-78
2022/12/27 04:34:50;;;;;;;24.60;15.80;;;;;;;2.96;100.00;101121.91;108414;1257;58194;-78
2022/12/27 04:37:19;;;;;;;26.30;16.80;;;;;;;3.00;100.00;101126.75;108422;1260;58162;-78
2022/12/27 04:56:36;;;;;;;25.80;16.60;;;;;;;3.11;100.00;101122.73;108305;1254;74705;-79
2022/12/27 05:02:04;;;;;;;28.90;17.30;;;;;;;3.02;100.00;101117.73;108236;1258;70928;-78
2022/12/27 05:04:36;;;;;;;28.80;16.90;;;;;;;2.92;100.00;101105.88;108215;1254;73460;-77
2022/12/27 05:15:34;;;;;;;27.60;17.40;;;;;;;2.75;100.00;101103.02;108349;1252;62455;-83
2022/12/27 05:18:03;;;;;;;30.20;16.60;;;;;;;2.66;100.00;101102.61;108037;1264;59604;-82
2022/12/27 05:20:34;;;;;;;29.20;18.40;;;;;;;2.61;100.00;101103.48;108163;1257;73759;-84
2022/12/27 05:25:50;;;;;;;30.00;17.80;;;;;;;2.65;100.00;101098.34;108316;1254;61564;-81
2022/12/27 05:28:18;;;;;;;28.80;17.40;;;;;;;2.68;100.00;101099.43;108327;1254;63676;-81
2022/12/27 05:30:47;;;;;;;30.00;17.80;;;;;;;2.75;100.00;101099.89;108317;1257;62567;-79
2022/12/27 05:33:16;;;;;;;30.60;18.50;;;;;;;2.74;100.00;101096.34;108358;1258;59817;-82
2022/12/27 05:35:45;;;;;;;31.00;18.90;;;;;;;2.73;100.00;101093.45;108317;1266;62446;-83
2022/12/27 05:38:14;;;;;;;31.70;19.40;;;;;;;2.73;100.00;101097.07;108514;1249;58213;-80
2022/12/27 05:40:43;;;;;;;31.20;18.70;;;;;;;2.74;100.00;101097.52;108355;1264;61121;-81
2022/12/27 05:43:11;;;;;;;28.10;18.30;;;;;;;2.70;100.00;101096.81;108356;1255;74710;-81
2022/12/27 05:45:40;;;;;;;30.80;18.50;;;;;;;2.71;100.00;101092.45;108449;1261;62275;-82
2022/12/27 05:48:09;;;;;;;30.10;19.40;;;;;;;2.75;100.00;101090.79;108423;1261;59909;-80
2022/12/27 05:50:38;;;;;;;33.10;18.90;;;;;;;2.69;100.00;101085.67;108484;1245;63935;-82
2022/12/27 05:53:13;;;;;;;28.60;17.20;;;;;;;2.69;100.00;101085.50;108234;1263;60992;-80
2022/12/27 05:55:42;;;;;;;33.00;19.80;;;;;;;2.68;100.00;101090.15;108332;1257;58224;-82
2022/12/27 05:58:11;;;;;;;31.30;18.00;;;;;;;2.66;100.00;101080.08;108415;1260;63692;-82
2022/12/27 06:00:40;;;;;;;29.20;17.90;;;;;;;2.68;100.00;101083.63;108409;1252;72074;-82
2022/12/27 06:03:08;;;;;;;32.50;19.50;;;;;;;2.74;100.00;101084.45;108492;1249;71453;-84
2022/12/27 06:05:37;;;;;;;31.40;19.20;;;;;;;2.68;100.00;101081.91;108440;1264;74563;-83
2022/12/27 06:08:08;;;;;;;31.00;17.70;;;;;;;2.76;100.00;101088.01;108493;1253;58292;-83
2022/12/27 06:10:37;;;;;;;29.90;17.90;;;;;;;2.70;100.00;101084.06;108216;1258;57881;-81
2022/12/27 06:13:06;;;;;;;33.30;18.90;;;;;;;2.63;100.00;101081.88;108375;1257;63748;-80
2022/12/27 06:15:36;;;;;;;34.30;19.30;;;;;;;2.67;100.00;101086.40;108423;1251;71380;-81
2022/12/27 06:18:05;;;;;;;32.50;19.30;;;;;;;2.72;100.00;101088.48;108490;1252;70839;-79
2022/12/27 06:20:34;;;;;;;32.00;19.20;;;;;;;2.80;100.00;101085.65;108350;1264;63248;-82
2022/12/27 06:23:03;;;;;;;30.90;18.30;;;;;;;2.89;100.00;101086.36;108258;1248;58302;-81
2022/12/27 06:25:33;;;;;;;30.30;18.10;;;;;;;2.96;100.00;101091.29;108373;1249;60218;-81
2022/12/27 06:28:01;;;;;;;28.30;18.20;;;;;;;3.03;100.00;101087.42;108288;1254;74684;-84
2022/12/27 06:30:30;;;;;;;32.20;19.20;;;;;;;3.10;100.00;101089.21;108470;1252;61401;-83
2022/12/27 06:33:03;;;;;;;31.10;18.50;;;;;;;3.11;100.00;101088.52;108382;1254;68641;-85
2022/12/27 06:35:32;;;;;;;29.90;18.40;;;;;;;3.19;100.00;101096.12;108392;1250;63133;-83
2022/12/27 06:38:01;;;;;;;31.70;18.60;;;;;;;3.26;100.00;101097.10;108373;1259;58253;-82
2022/12/27 06:40:30;;;;;;;29.10;17.60;;;;;;;3.31;100.00;101098.11;108402;1254;58195;-81
2022/12/27 06:42:59;;;;;;;31.00;18.90;;;;;;;3.29;100.00;101096.47;108389;1250;74265;-82
2022/12/27 06:45:27;;;;;;;28.90;17.50;;;;;;;3.31;100.00;101098.30;108402;1263;72782;-79
2022/12/27 06:47:56;;;;;;;32.00;18.80;;;;;;;3.34;100.00;101105.60;108394;1257;70750;-79
2022/12/27 06:50:25;;;;;;;27.40;18.10;;;;;;;3.42;100.00;101101.67;108347;1253;63163;-81
2022/12/27 06:52:55;;;;;;;26.40;17.60;;;;;;;3.32;100.00;101089.80;108317;1254;58122;-80
2022/12/27 06:55:23;;;;;;;28.00;17.30;;;;;;;3.24;100.00;101094.05;108419;1252;61162;-83
2022/12/27 06:57:52;;;;;;;32.80;19.40;;;;;;;3.37;100.00;101097.40;108418;1254;64237;-82
2022/12/27 07:00:21;;;;;;;30.90;18.70;;;;;;;3.37;100.00;101099.13;108439;1255;60800;-80
2022/12/27 07:02:50;;;;;;;30.70;18.90;;;;;;;3.43;100.00;101093.36;108283;1260;59275;-80
2022/12/27 07:05:19;;;;;;;30.30;18.00;;;;;;;3.41;100.00;101092.77;108357;1257;63402;-79
2022/12/27 07:07:48;;;;;;;30.70;18.80;;;;;;;3.46;100.00;101094.98;108321;1254;61908;-81
2022/12/27 07:10:17;;;;;;;28.50;17.50;;;;;;;3.43;100.00;101097.85;108162;1260;61410;-82
2022/12/27 07:12:46;;;;;;;29.50;18.30;;;;;;;3.42;100.00;101092.38;108255;1254;74800;-82
2022/12/27 07:15:15;;;;;;;32.00;19.00;;;;;;;3.45;100.00;101091.41;108376;1255;71653;-80
2022/12/27 07:17:43;;;;;;;28.50;19.00;;;;;;;3.42;100.00;101094.46;108391;1260;59711;-81
2022/12/27 07:20:12;;;;;;;30.00;18.40;;;;;;;3.21;100.00;101093.30;108452;1261;71921;-82
2022/12/27 07:22:41;;;;;;;32.10;18.50;;;;;;;3.31;100.00;101089.84;108396;1254;57725;-80
2022/12/27 07:25:10;;;;;;;29.10;17.70;;;;;;;3.25;100.00;101090.06;108370;1257;58155;-80
2022/12/27 07:27:39;;;;;;;30.00;18.40;;;;;;;3.25;100.00;101088.69;108520;1252;74426;-82
2022/12/27 07:30:08;;;;;;;28.10;17.20;;;;;;;3.35;100.00;101090.21;108375;1249;71086;-84
2022/12/27 07:32:37;;;;;;;32.60;20.00;;;;;;;3.35;100.00;101087.48;108415;1261;59648;-86
2022/12/27 07:35:06;;;;;;;29.20;17.70;;;;;;;3.39;100.00;101082.33;108434;1255;63895;-87
2022/12/27 07:37:37;;;;;;;31.00;18.40;;;;;;;3.45;100.00;101080.73;108404;1257;57795;-86
2022/12/27 07:40:07;;;;;;;29.60;17.80;;;;;;;3.41;100.00;101089.67;108395;1258;60374;-88
2022/12/27 07:42:36;;;;;;;29.30;18.00;;;;;;;3.45;100.00;101093.31;108245;1254;73520;-88
2022/12/27 07:45:05;;;;;;;30.90;18.40;;;;;;;3.40;100.00;101092.80;108506;1248;61725;-84
2022/12/27 07:47:34;;;;;;;30.80;17.40;;;;;;;3.46;100.00;101090.51;108316;1263;59932;-86
2022/12/27 07:50:05;;;;;;;28.70;16.60;;;;;;;3.58;100.00;101089.70;108429;1252;63207;-87
2022/12/27 07:52:34;;;;;;;32.30;19.10;;;;;;;3.66;100.00;101096.48;108410;1253;61966;-84
2022/12/27 07:55:03;;;;;;;31.20;18.70;;;;;;;3.67;100.00;101106.96;108274;1254;61508;-86
2022/12/27 07:57:32;;;;;;;30.40;18.60;;;;;;;3.67;100.00;101108.66;108371;1253;63617;-87
2022/12/27 08:00:02;;;;;;;33.10;19.10;;;;;;;3.79;100.00;101111.18;108477;1252;71318;-85
2022/12/27 08:02:42;;;;;;;32.30;19.50;;;;;;;3.66;100.00;101109.41;108416;1253;70093;-86
2022/12/27 08:05:12;;;;;;;35.60;21.60;;;;;;;3.72;100.00;101113.66;108260;1253;63928;-87
2022/12/27 08:07:42;;;;;;;33.80;19.90;;;;;;;3.79;100.00;101109.09;108312;1257;63108;-84
2022/12/27 08:10:11;;;;;;;32.50;20.60;;;;;;;3.87;100.00;101114.48;108174;1256;60999;-87
2022/12/27 08:12:41;;;;;;;34.80;20.00;;;;;;;3.86;100.00;101124.67;108011;1254;75058;-85
2022/12/27 08:15:11;;;;;;;32.90;19.60;;;;;;;3.85;100.00;101132.29;108259;1254;72348;-83
2022/12/27 08:17:40;;;;;;;35.80;21.00;;;;;;;3.90;100.00;101131.08;108141;1257;69758;-86
2022/12/27 08:20:13;;;;;;;32.60;19.60;;;;;;;3.89;100.00;101129.37;108120;1254;74127;-82
2022/12/27 08:22:42;;;;;;;;;;;;;;;3.82;100.00;101126.39;107997;1260;58362;-83
2022/12/27 08:25:11;;;;;;;31.90;20.00;;;;;;;3.82;100.00;101133.96;108224;1256;60050;-83
2022/12/27 08:27:40;;;;;;;29.10;18.60;;;;;;;3.80;100.00;101142.50;108140;1255;75343;-81
2022/12/27 08:30:09;;;;;;;32.60;19.30;;;;;;;3.80;100.00;101143.35;108315;1252;70878;-86
2022/12/27 08:32:38;;;;;;;34.40;20.50;;;;;;;3.82;100.00;101142.58;108142;1257;68184;-85
2022/12/27 08:35:08;;;;;;;39.80;21.80;;;;;;;3.84;100.00;101145.96;108099;1255;73834;-84
2022/12/27 08:38:00;;;;;;;38.10;20.20;;;;;;;3.77;100.00;101128.95;108137;1257;62958;-81
2022/12/27 08:40:29;;;;;;;34.00;19.60;;;;;;;3.67;100.00;101122.48;107947;1260;61352;-80
2022/12/27 08:42:59;;;;;;;38.10;20.60;;;;;;;3.70;100.00;101114.95;108210;1257;65125;-82
2022/12/27 08:45:28;;;;;;;36.90;21.10;;;;;;;3.70;100.00;101110.11;108350;1252;72051;-85
2022/12/27 08:48:01;;;;;;;36.00;20.70;;;;;;;3.69;100.00;101110.50;108199;1254;60960;-83
2022/12/27 08:50:30;;;;;;;34.70;20.90;;;;;;;3.59;100.00;101106.37;108198;1254;62426;-84
2022/12/27 08:53:01;;;;;;;35.40;21.50;;;;;;;3.58;100.00;101097.84;108220;1254;58367;-84
2022/12/27 08:55:31;;;;;;;35.10;21.50;;;;;;;3.62;100.00;101094.91;108020;1259;61426;-86
2022/12/27 08:58:05;;;;;;;34.70;21.00;;;;;;;3.66;100.00;101095.98;108098;1254;64623;-82
2022/12/27 09:00:43;;;;;;;39.20;22.40;;;;;;;3.72;100.00;101096.41;108072;1255;71623;-85
2022/12/27 09:03:11;;;;;;;35.70;20.40;;;;;;;3.69;100.00;101097.58;108136;1257;69758;-86
2022/12/27 09:05:40;;;;;;;33.90;20.40;;;;;;;3.68;100.00;101103.30;108131;1254;74158;-85
2022/12/27 09:08:10;;;;;;;34.00;20.80;;;;;;;3.70;100.00;101107.70;108204;1251;63281;-85
2022/12/27 09:10:39;;;;;;;33.00;21.30;;;;;;;3.80;100.00;101108.00;108288;1261;57859;-86
2022/12/27 09:13:08;;;;;;;41.50;22.80;;;;;;;3.78;100.00;101096.39;108037;1257;63750;-84
2022/12/27 09:15:38;;;;;;;37.60;21.90;;;;;;;3.80;100.00;101090.94;108490;1252;70686;-85
2022/12/27 09:18:07;;;;;;;39.90;22.50;;;;;;;3.84;100.00;101085.84;108296;1244;70023;-87
2022/12/27 09:20:36;;;;;;;36.50;21.80;;;;;;;3.91;100.00;101080.04;108142;1256;73211;-84
2022/12/27 09:23:05;;;;;;;35.10;21.00;;;;;;;3.95;100.00;101078.65;108244;1254;57975;-86
2022/12/27 09:25:34;;;;;;;35.80;21.10;;;;;;;4.01;100.00;101085.50;108307;1260;58285;-86
2022/12/27 09:28:05;;;;;;;35.60;21.30;;;;;;;3.96;100.00;101086.21;108201;1261;64138;-86
2022/12/27 09:30:35;;;;;;;36.90;21.90;;;;;;;4.01;100.00;101081.53;108362;1253;61715;-88
2022/12/27 09:33:08;;;;;;;35.80;21.60;;;;;;;4.08;100.00;101065.93;108196;1257;70506;-85
2022/12/27 09:35:39;;;;;;;41.40;25.10;;;;;;;4.15;100.00;101063.76;108303;1252;62631;-86
2022/12/27 09:38:10;;;;;;;37.10;23.40;;;;;;;4.25;100.00;101063.02;108387;1258;62613;-87
2022/12/27 09:40:39;;;;;;;40.90;23.50;;;;;;;4.45;100.00;101064.73;108324;1254;60698;-88
2022/12/27 09:43:08;;;;;;;35.30;22.50;;;;;;;4.58;100.00;101058.90;108368;1257;74813;-85
2022/12/27 09:45:55;;;;;;;38.70;23.90;;;;;;;4.81;100.00;101050.30;108460;1250;71099;-83
2022/12/27 09:48:37;;;;;;;37.80;23.40;;;;;;;5.03;100.00;101048.84;108148;1257;68629;-85
2022/12/27 09:51:28;;;;;;;42.40;23.60;;;;;;;5.16;100.00;101039.30;108290;1257;63229;-85
2022/12/27 09:54:30;;;;;;;39.00;22.70;;;;;;;5.31;100.00;101030.31;108300;1257;60196;-85
2022/12/27 09:57:00;;;;;;;40.70;25.40;;;;;;;5.46;99.99;101026.54;108362;1254;61602;-84
2022/12/27 09:59:57;;;;;;;33.80;20.40;;;;;;;5.39;99.88;101031.85;108274;1253;64654;-84
2022/12/27 10:02:28;;;;;;;37.60;22.50;;;;;;;5.50;99.16;101030.14;108540;1248;61999;-83
2022/12/27 10:04:58;;;;;;;40.10;24.70;;;;;;;5.45;99.60;101029.70;108382;1251;70997;-84
2022/12/27 10:08:19;;;;;;;41.70;23.90;;;;;;;5.54;99.47;101025.98;108356;1254;74069;-80
2022/12/27 10:11:37;;;;;;;42.30;26.40;;;;;;;5.65;99.71;101026.86;108444;1255;57746;-81
2022/12/27 10:14:44;;;;;;;42.30;26.00;;;;;;;5.39;100.00;101038.08;108302;1253;59480;-81
2022/12/27 10:18:09;;;;;;;42.90;25.90;;;;;;;5.42;100.00;101033.25;108375;1249;74144;-79
2022/12/27 10:21:14;;;;;;;45.70;25.00;;;;;;;5.56;100.00;101035.04;106977;1261;1439830;-80
2022/12/27 10:23:53;;;;;;;49.60;28.00;;;;;;;5.69;100.00;101040.49;108547;1254;69513;-83
2022/12/27 10:26:23;;;;;;;45.70;26.50;;;;;;;5.59;100.00;101040.45;108428;1261;64262;-86
2022/12/27 10:29:12;;;;;;;44.60;27.20;;;;;;;5.58;100.00;101038.39;108156;1258;58283;-83
2022/12/27 10:31:43;;;;;;;44.00;27.80;;;;;;;5.67;100.00;101035.05;108303;1254;58278;-82
2022/12/27 10:34:15;;;;;;;48.00;26.40;;;;;;;5.83;100.00;101034.66;108297;1254;64236;-88
2022/12/27 10:36:44;;;;;;;39.50;24.90;;;;;;;6.02;100.00;101037.05;108441;1252;72225;-85
2022/12/27 10:39:18;;;;;;;43.50;26.30;;;;;;;6.13;99.36;101038.59;108195;1254;60419;-83
2022/12/27 10:42:30;;;;;;;38.80;25.60;;;;;;;6.33;99.77;101032.56;108288;1255;64354;-84
2022/12/27 10:45:35;;;;;;;38.10;25.80;;;;;;;6.76;97.55;101033.34;108514;1247;58293;-83
2022/12/27 10:48:25;;;;;;;37.80;25.40;;;;;;;6.98;94.19;101031.71;108398;1256;60123;-82
2022/12/27 10:51:14;;;;;;;41.60;26.80;;;;;;;7.39;92.35;101024.86;108240;1257;73258;-84
2022/12/27 10:53:46;;;;;;;41.60;26.60;;;;;;;7.22;92.60;101015.52;108537;1252;71856;-82
2022/12/27 10:56:37;;;;;;;39.40;26.30;;;;;;;7.29;92.50;101012.05;108377;1257;70638;-85
2022/12/27 10:59:12;;;;;;;40.70;26.10;;;;;;;7.55;92.40;101016.85;108251;1263;73074;-85
2022/12/27 11:01:41;;;;;;;38.70;27.00;;;;;;;7.44;91.33;101025.80;108259;1258;60773;-82
2022/12/27 11:04:20;;;;;;;40.60;25.90;;;;;;;7.55;90.49;101025.89;108120;1256;61049;-84
2022/12/27 11:07:11;;;;;;;33.90;23.90;;;;;;;7.85;88.70;101022.68;108235;1249;64748;-83
2022/12/27 11:09:44;;;;;;;34.80;24.80;;;;;;;8.04;87.95;101030.23;108439;1249;71865;-80
2022/12/27 11:12:24;;;;;;;36.30;24.70;;;;;;;7.95;87.46;101029.58;108306;1260;60230;-81
2022/12/27 11:15:09;;;;;;;36.40;25.30;;;;;;;8.47;86.37;101023.46;108320;1258;62422;-86
2022/12/27 11:17:59;;;;;;;35.00;24.40;;;;;;;8.76;84.38;101017.09;108122;1256;57872;-84
2022/12/27 11:20:31;;;;;;;36.70;24.20;;;;;;;8.87;84.61;101012.42;108199;1254;61136;-89
2022/12/27 11:23:23;;;;;;;36.60;26.00;;;;;;;8.59;83.95;101015.84;107996;1263;74436;-84
2022/12/27 11:26:01;;;;;;;40.90;26.40;;;;;;;8.33;85.11;101019.27;108488;1258;61911;-87
2022/12/27 11:28:38;;;;;;;40.60;28.60;;;;;;;8.23;86.18;101019.30;108072;1263;59196;-83
2022/12/27 11:31:15;;;;;;;44.00;27.60;;;;;;;8.19;86.87;101021.81;108186;1250;63832;-85
2022/12/27 11:33:51;;;;;;;39.30;26.10;;;;;;;8.35;86.66;101018.48;108237;1258;58255;-86
2022/12/27 11:36:33;;;;;;;37.10;26.00;;;;;;;8.40;87.22;101017.48;108177;1265;60093;-80
2022/12/27 11:39:03;;;;;;;37.20;26.50;;;;;;;8.13;88.30;101016.21;108235;1260;74182;-84
2022/12/27 11:41:54;;;;;;;46.20;29.10;;;;;;;8.14;88.66;101018.08;108397;1256;61402;-86
2022/12/27 11:44:31;;;;;;;41.90;28.00;;;;;;;7.92;89.68;101012.23;108270;1255;59086;-85
2022/12/27 11:48:06;;;;;;;38.60;25.50;;;;;;;7.73;89.86;101011.21;108110;1264;62458;-87
2022/12/27 11:51:00;;;;;;;41.30;26.80;;;;;;;7.39;92.07;101011.34;107591;1261;58135;-85
2022/12/27 11:54:05;;;;;;;42.80;27.50;;;;;;;7.35;93.09;101011.91;108261;1260;60964;-84
2022/12/27 11:56:40;;;;;;;37.60;26.00;;;;;;;7.33;93.35;101012.50;108262;1262;63340;-85
2022/12/27 11:59:56;;;;;;;37.50;25.60;;;;;;;7.32;93.42;101014.34;108420;1254;61593;-79
2022/12/27 12:02:51;;;;;;;40.40;26.80;;;;;;;7.17;94.06;101015.44;107576;1262;59276;-84
2022/12/27 12:05:46;;;;;;;38.70;26.10;;;;;;;7.32;93.90;101015.02;107646;1265;74105;-85
2022/12/27 12:08:53;;;;;;;40.60;27.20;;;;;;;7.44;93.29;101015.90;108144;1251;61226;-85
2022/12/27 12:11:41;;;;;;;40.80;26.50;;;;;;;7.89;90.55;101007.16;108317;1254;60923;-84
2022/12/27 12:15:06;;;;;;;41.20;25.30;;;;;;;8.38;87.66;101005.27;108147;1250;73155;-86
2022/12/27 12:18:02;;;;;;;39.30;26.90;;;;;;;8.90;85.92;101004.05;108370;1252;69792;-81
2022/12/27 12:20:38;;;;;;;40.50;26.00;;;;;;;9.23;83.60;101008.47;108221;1252;67749;-84
2022/12/27 12:23:20;;;;;;;35.90;26.50;;;;;;;9.38;81.86;101008.43;108123;1249;71245;-83
2022/12/27 12:26:15;;;;;;;42.20;26.50;;;;;;;9.54;80.55;101009.68;108244;1250;61747;-78
2022/12/27 12:29:28;;;;;;;37.70;25.70;;;;;;;9.40;81.87;101015.76;108109;1258;60674;-80
2022/12/27 12:32:24;;;;;;;39.10;27.30;;;;;;;9.43;82.16;101019.88;108301;1254;63615;-83
2022/12/27 12:35:14;;;;;;;44.40;30.30;;;;;;;9.33;81.95;101023.16;108471;1247;72090;-82
2022/12/27 12:37:52;;;;;;;38.90;27.00;;;;;;;9.00;83.52;101026.05;108385;1260;59854;-83
2022/12/27 12:40:31;;;;;;;41.80;27.80;;;;;;;9.06;83.58;101031.41;108398;1258;71705;-84
2022/12/27 12:43:44;;;;;;;41.50;27.20;;;;;;;8.95;84.04;101031.06;108329;1259;58151;-84
2022/12/27 12:46:54;;;;;;;41.10;28.00;;;;;;;8.90;84.68;101033.81;108359;1256;58212;-86
2022/12/27 12:49:53;;;;;;;41.80;27.70;;;;;;;8.86;84.58;101036.27;108290;1259;63774;-84
2022/12/27 12:52:34;;;;;;;36.10;25.60;;;;;;;8.48;86.52;101038.54;108363;1249;70338;-85
2022/12/27 12:55:38;;;;;;;44.80;28.50;;;;;;;8.30;87.45;101043.57;108314;1262;69590;-84
2022/12/27 12:58:41;;;;;;;44.20;27.30;;;;;;;8.13;88.87;101045.21;108394;1257;63692;-85
2022/12/27 13:01:44;;;;;;;41.80;26.30;;;;;;;8.00;89.95;101048.20;108374;1258;58497;-83
2022/12/27 13:04:39;;;;;;;40.80;27.50;;;;;;;7.99;90.21;101098.19;108366;1255;58189;-86
2022/12/27 13:07:11;;;;;;;48.20;29.80;;;;;;;8.09;89.75;101155.24;108384;1254;62977;-88
2022/12/27 13:09:51;;;;;;;42.10;26.30;;;;;;;8.01;90.71;101152.38;108414;1258;72112;-90
2022/12/27 13:12:23;;;;;;;39.90;25.60;;;;;;;8.18;91.05;101165.47;108305;1257;67601;-75
2022/12/27 13:15:37;;;;;;;32.40;19.80;;;;;;;8.23;91.72;101175.26;108236;1253;73034;-71
2022/12/27 13:18:42;;;;;;;36.30;24.30;;;;;;;8.26;92.31;101187.27;108281;1254;58590;-74
2022/12/27 13:21:58;;;;;;;37.50;22.20;;;;;;;8.23;92.51;101195.39;108361;1252;60396;-73
2022/12/27 13:25:07;;;;;;;34.10;22.20;;;;;;;8.21;92.16;101199.82;108283;1252;74634;-86
2022/12/27 13:28:22;;;;;;;33.70;22.70;;;;;;;8.20;91.24;101203.54;108493;1252;72475;-83
2022/12/27 13:31:26;;;;;;;34.10;21.20;;;;;;;7.99;92.41;101204.89;108290;1255;59033;-85
2022/12/27 13:34:36;;;;;;;30.80;19.10;;;;;;;7.87;92.62;101215.41;108071;1258;65033;-87